createdAt,value
2023-05-16T00:00:53.127Z,97049.03
2023-05-16T00:03:20.195Z,97045.59
2023-05-16T00:05:46.966Z,97045.59
2023-05-16T00:08:13.505Z,97043.94
2023-05-16T00:10:40.106Z,97043.91
2023-05-16T00:13:07.222Z,97047.28
2023-05-16T00:15:33.760Z,97052.44
2023-05-16T00:18:00.435Z,97051.56
2023-05-16T00:20:28.261Z,97042.19
2023-05-16T00:22:55.526Z,97040.50
2023-05-16T00:25:22.846Z,97039.63
2023-05-16T00:27:49.405Z,97040.50
2023-05-16T00:30:16.050Z,97039.66
2023-05-16T00:32:43.262Z,97037.94
2023-05-16T00:35:11.495Z,97032.72
2023-05-16T00:37:38.735Z,97039.66
2023-05-16T00:40:05.896Z,97041.34
2023-05-16T00:42:32.520Z,97042.19
2023-05-16T00:45:00.070Z,97041.31
2023-05-16T00:47:26.746Z,97037.88
2023-05-16T00:49:53.419Z,97037.88
2023-05-16T00:52:19.929Z,97031.78
2023-05-16T00:54:46.655Z,97037.88
2023-05-16T00:57:13.143Z,97043.00
2023-05-16T00:59:40.273Z,97033.66
2023-05-16T01:02:06.813Z,97037.06
2023-05-16T01:04:33.456Z,97032.69
2023-05-16T01:06:59.962Z,97039.59
2023-05-16T01:09:26.529Z,97038.75
2023-05-16T01:12:15.098Z,97047.16
2023-05-16T01:15:02.173Z,97035.31
2023-05-16T01:17:36.995Z,97025.09
2023-05-16T01:20:06.630Z,96987.81
2023-05-16T01:22:46.227Z,97025.09
2023-05-16T01:25:31.494Z,97026.81
2023-05-16T01:27:58.026Z,97029.38
2023-05-16T01:30:25.308Z,97025.06
2023-05-16T01:32:52.085Z,97028.50
2023-05-16T01:35:18.612Z,97026.75
2023-05-16T01:38:06.224Z,97025.94
2023-05-16T01:41:25.185Z,97023.41
2023-05-16T01:43:52.785Z,97028.50
2023-05-16T01:46:26.350Z,97025.91
2023-05-16T01:49:17.184Z,97025.06
2023-05-16T01:51:45.985Z,97014.72
2023-05-16T01:54:13.725Z,97019.84
2023-05-16T01:56:40.573Z,97013.16
2023-05-16T01:59:07.094Z,97013.97
2023-05-16T02:01:33.677Z,97012.31
2023-05-16T02:04:00.439Z,97019.09
2023-05-16T02:06:27.338Z,97014.84
2023-05-16T02:08:53.828Z,97022.53
2023-05-16T02:11:20.372Z,96987.28
2023-05-16T02:13:46.947Z,97013.97
2023-05-16T02:16:13.618Z,97011.44
2023-05-16T02:18:40.400Z,97014.84
2023-05-16T02:21:07.136Z,97015.69
2023-05-16T02:23:33.742Z,97012.28
2023-05-16T02:26:00.259Z,97010.56
2023-05-16T02:28:26.779Z,97010.56
2023-05-16T02:30:59.717Z,97010.56
2023-05-16T02:33:27.502Z,97014.81
2023-05-16T02:35:54.290Z,97005.47
2023-05-16T02:38:21.246Z,97005.47
2023-05-16T02:40:48.451Z,97011.41
2023-05-16T02:43:14.949Z,97008.81
2023-05-16T02:45:41.534Z,97016.53
2023-05-16T02:48:09.269Z,97005.41
2023-05-16T02:50:36.112Z,96991.53
2023-05-16T02:53:02.677Z,97004.63
2023-05-16T02:55:29.341Z,97011.41
2023-05-16T02:57:55.920Z,97015.69
2023-05-16T03:00:22.520Z,97014.81
2023-05-16T03:02:49.283Z,97006.22
2023-05-16T03:05:16.310Z,97022.47
2023-05-16T03:07:42.837Z,97017.38
2023-05-16T03:10:09.601Z,97019.94
2023-05-16T03:12:36.184Z,97020.81
2023-05-16T03:15:04.059Z,97017.34
2023-05-16T03:17:30.770Z,97024.16
2023-05-16T03:19:57.275Z,97023.31
2023-05-16T03:22:23.893Z,97029.25
2023-05-16T03:24:50.581Z,97029.25
2023-05-16T03:27:17.146Z,97030.13
2023-05-16T03:29:43.679Z,97026.66
2023-05-16T03:32:11.370Z,97025.88
2023-05-16T03:34:38.039Z,97031.78
2023-05-16T03:37:04.609Z,97034.31
2023-05-16T03:39:31.183Z,97032.63
2023-05-16T03:41:57.777Z,97035.09
2023-05-16T03:44:24.358Z,97031.69
2023-05-16T03:46:51.472Z,97036.03
2023-05-16T03:49:18.445Z,97038.59
2023-05-16T03:51:45.115Z,97034.28
2023-05-16T03:54:11.660Z,97040.34
2023-05-16T03:56:38.157Z,97037.78
2023-05-16T03:59:04.750Z,97036.13
2023-05-16T04:01:31.338Z,97034.38
2023-05-16T04:03:57.880Z,97033.59
2023-05-16T04:06:24.377Z,97041.25
2023-05-16T04:08:50.994Z,97045.50
2023-05-16T04:11:17.515Z,97045.41
2023-05-16T04:13:44.084Z,97045.50
2023-05-16T04:16:10.734Z,97048.03
2023-05-16T04:18:37.311Z,97052.28
2023-05-16T04:21:04.175Z,97045.50
2023-05-16T04:23:30.934Z,97053.19
2023-05-16T04:25:57.434Z,97053.19
2023-05-16T04:28:23.993Z,97056.56
2023-05-16T04:30:50.633Z,97050.59
2023-05-16T04:33:17.548Z,97051.47
2023-05-16T04:35:44.134Z,97053.19
2023-05-16T04:38:10.762Z,97045.53
2023-05-16T04:40:37.692Z,97038.75
2023-05-16T04:43:04.309Z,97048.97
2023-05-16T04:45:30.969Z,97043.00
2023-05-16T04:47:57.678Z,97040.47
2023-05-16T04:50:24.360Z,97035.31
2023-05-16T04:52:50.962Z,97032.78
2023-05-16T04:55:17.824Z,97035.34
2023-05-16T05:11:00.062Z,97047.59
2023-05-16T05:13:26.745Z,96857.66
2023-05-16T05:15:53.387Z,96949.47
2023-05-16T05:18:20.089Z,96907.06
2023-05-16T05:20:46.929Z,96926.00
2023-05-16T05:23:13.587Z,96921.84
2023-05-16T05:25:40.983Z,96952.81
2023-05-16T05:28:07.738Z,97015.69
2023-05-16T05:30:34.440Z,96872.41
2023-05-16T05:33:01.279Z,96856.81
2023-05-16T05:35:28.353Z,96906.91
2023-05-16T05:37:55.837Z,96798.94
2023-05-16T05:40:22.515Z,96905.94
2023-05-16T05:42:49.639Z,96921.16
2023-05-16T05:45:18.455Z,97003.34
2023-05-16T05:47:51.815Z,97038.13
2023-05-16T05:50:18.682Z,96885.84
2023-05-16T05:52:45.510Z,96912.25
2023-05-16T05:55:12.325Z,96859.72
2023-05-16T05:57:39.281Z,96902.97
2023-05-16T06:00:07.108Z,96865.75
2023-05-16T06:02:34.713Z,96960.72
2023-05-16T06:05:01.499Z,96895.06
2023-05-16T06:07:28.266Z,96914.78
2023-05-16T06:09:54.906Z,96784.53
2023-05-16T06:12:21.529Z,96910.53
2023-05-16T06:14:48.120Z,96875.69
2023-05-16T06:17:15.130Z,96988.09
2023-05-16T06:19:41.994Z,96925.91
2023-05-16T06:22:09.173Z,96874.16
2023-05-16T06:24:38.354Z,96817.75
2023-05-16T06:27:05.393Z,96857.59
2023-05-16T06:29:32.414Z,96873.84
2023-05-16T06:31:59.413Z,96842.91
2023-05-16T06:34:28.985Z,96929.25
2023-05-16T06:36:56.029Z,97012.22
2023-05-16T06:39:23.052Z,96915.41
2023-05-16T06:41:50.353Z,96843.72
2023-05-16T06:44:24.471Z,96898.97
2023-05-16T06:46:54.479Z,96817.69
2023-05-16T06:49:21.536Z,97059.84
2023-05-16T06:51:48.375Z,96855.00
2023-05-16T06:54:15.338Z,96903.34
2023-05-16T06:56:42.394Z,96882.41
2023-05-16T06:59:09.680Z,96825.44
2023-05-16T07:01:36.934Z,96907.47
2023-05-16T07:04:04.216Z,96849.56
2023-05-16T07:06:31.455Z,97011.34
2023-05-16T07:08:58.473Z,96910.31
2023-05-16T07:11:25.786Z,97001.06
2023-05-16T07:13:52.736Z,96916.28
2023-05-16T07:16:19.789Z,96873.00
2023-05-16T07:18:46.880Z,96886.63
2023-05-16T07:21:13.904Z,96891.81
2023-05-16T07:23:41.644Z,96907.53
2023-05-16T07:26:08.693Z,96896.19
2023-05-16T07:28:35.874Z,96859.06
